sensor_id;sensor_type;location;lat;lon;timestamp;P1;durP1;ratioP1;P2;durP2;ratioP2
13197;SDS011;6664;52.514;13.440;2023-12-20T00:02:01;2.03;;;1.93;;
13197;SDS011;6664;52.514;13.440;2023-12-20T00:04:47;2.77;;;2.57;;
13197;SDS011;6664;52.514;13.440;2023-12-20T00:07:33;2.40;;;2.30;;
13197;SDS011;6664;52.514;13.440;2023-12-20T00:10:19;2.63;;;2.43;;
13197;SDS011;6664;52.514;13.440;2023-12-20T00:13:05;2.87;;;2.67;;
13197;SDS011;6664;52.514;13.440;2023-12-20T00:15:52;2.57;;;2.37;;
13197;SDS011;6664;52.514;13.440;2023-12-20T00:18:38;3.73;;;2.87;;
13197;SDS011;6664;52.514;13.440;2023-12-20T00:21:24;4.90;;;2.47;;
13197;SDS011;6664;52.514;13.440;2023-12-20T00:24:09;2.50;;;2.30;;
13197;SDS011;6664;52.514;13.440;2023-12-20T00:26:55;3.50;;;3.20;;
13197;SDS011;6664;52.514;13.440;2023-12-20T00:29:41;2.83;;;2.57;;
13197;SDS011;6664;52.514;13.440;2023-12-20T00:32:28;3.27;;;2.97;;
13197;SDS011;6664;52.514;13.440;2023-12-20T00:35:13;2.20;;;2.10;;
13197;SDS011;6664;52.514;13.440;2023-12-20T00:38:00;2.87;;;2.50;;
13197;SDS011;6664;52.514;13.440;2023-12-20T00:40:46;2.47;;;2.27;;
13197;SDS011;6664;52.514;13.440;2023-12-20T00:43:31;2.73;;;2.53;;
13197;SDS011;6664;52.514;13.440;2023-12-20T00:46:17;2.60;;;2.40;;
13197;SDS011;6664;52.514;13.440;2023-12-20T00:49:02;3.03;;;2.73;;
13197;SDS011;6664;52.514;13.440;2023-12-20T00:51:50;2.80;;;2.70;;
13197;SDS011;6664;52.514;13.440;2023-12-20T00:54:38;3.10;;;2.77;;
13197;SDS011;6664;52.514;13.440;2023-12-20T00:57:23;2.87;;;2.70;;
13197;SDS011;6664;52.514;13.440;2023-12-20T01:00:10;2.47;;;2.37;;
13197;SDS011;6664;52.514;13.440;2023-12-20T01:02:56;3.27;;;2.60;;
13197;SDS011;6664;52.514;13.440;2023-12-20T01:05:42;3.00;;;2.80;;
13197;SDS011;6664;52.514;13.440;2023-12-20T01:08:28;2.77;;;2.57;;
13197;SDS011;6664;52.514;13.440;2023-12-20T01:11:13;3.23;;;2.93;;
13197;SDS011;6664;52.514;13.440;2023-12-20T01:13:58;3.10;;;2.90;;
13197;SDS011;6664;52.514;13.440;2023-12-20T01:16:45;3.10;;;2.90;;
13197;SDS011;6664;52.514;13.440;2023-12-20T01:19:31;3.13;;;2.80;;
13197;SDS011;6664;52.514;13.440;2023-12-20T01:22:17;2.43;;;2.30;;
13197;SDS011;6664;52.514;13.440;2023-12-20T01:25:02;2.80;;;2.60;;
13197;SDS011;6664;52.514;13.440;2023-12-20T01:27:49;2.40;;;2.20;;
13197;SDS011;6664;52.514;13.440;2023-12-20T01:30:35;5.23;;;2.70;;
13197;SDS011;6664;52.514;13.440;2023-12-20T01:33:21;2.67;;;2.50;;
13197;SDS011;6664;52.514;13.440;2023-12-20T01:36:07;2.77;;;2.57;;
13197;SDS011;6664;52.514;13.440;2023-12-20T01:38:52;2.10;;;2.00;;
13197;SDS011;6664;52.514;13.440;2023-12-20T01:41:38;2.27;;;2.17;;
13197;SDS011;6664;52.514;13.440;2023-12-20T01:44:26;2.43;;;2.10;;
13197;SDS011;6664;52.514;13.440;2023-12-20T01:47:12;2.47;;;2.27;;
13197;SDS011;6664;52.514;13.440;2023-12-20T01:50:00;2.43;;;2.27;;
13197;SDS011;6664;52.514;13.440;2023-12-20T01:52:48;2.30;;;2.10;;
13197;SDS011;6664;52.514;13.440;2023-12-20T01:55:38;1.97;;;1.87;;
13197;SDS011;6664;52.514;13.440;2023-12-20T01:58:25;1.63;;;1.53;;
13197;SDS011;6664;52.514;13.440;2023-12-20T02:04:27;2.00;;;1.90;;
13197;SDS011;6664;52.514;13.440;2023-12-20T02:07:16;2.13;;;2.03;;
13197;SDS011;6664;52.514;13.440;2023-12-20T02:10:08;2.03;;;1.93;;
13197;SDS011;6664;52.514;13.440;2023-12-20T02:12:56;2.07;;;1.90;;
13197;SDS011;6664;52.514;13.440;2023-12-20T02:15:44;1.73;;;1.60;;
13197;SDS011;6664;52.514;13.440;2023-12-20T02:18:29;3.27;;;1.60;;
13197;SDS011;6664;52.514;13.440;2023-12-20T02:21:18;1.43;;;1.40;;
13197;SDS011;6664;52.514;13.440;2023-12-20T02:24:05;1.50;;;1.07;;
13197;SDS011;6664;52.514;13.440;2023-12-20T02:26:52;0.90;;;0.90;;
13197;SDS011;6664;52.514;13.440;2023-12-20T02:29:40;2.73;;;1.40;;
13197;SDS011;6664;52.514;13.440;2023-12-20T02:32:26;0.90;;;0.90;;
13197;SDS011;6664;52.514;13.440;2023-12-20T02:35:14;4.40;;;1.33;;
13197;SDS011;6664;52.514;13.440;2023-12-20T02:38:00;1.40;;;1.13;;
13197;SDS011;6664;52.514;13.440;2023-12-20T02:40:46;3.53;;;1.30;;
13197;SDS011;6664;52.514;13.440;2023-12-20T02:43:34;1.63;;;1.53;;
13197;SDS011;6664;52.514;13.440;2023-12-20T02:46:19;1.70;;;1.60;;
13197;SDS011;6664;52.514;13.440;2023-12-20T02:49:06;1.90;;;1.80;;
13197;SDS011;6664;52.514;13.440;2023-12-20T02:51:52;2.50;;;1.83;;
13197;SDS011;6664;52.514;13.440;2023-12-20T02:54:37;2.20;;;2.10;;
13197;SDS011;6664;52.514;13.440;2023-12-20T02:57:24;1.90;;;1.80;;
13197;SDS011;6664;52.514;13.440;2023-12-20T03:00:10;1.90;;;1.80;;
13197;SDS011;6664;52.514;13.440;2023-12-20T03:02:56;2.27;;;2.07;;
13197;SDS011;6664;52.514;13.440;2023-12-20T03:05:45;2.70;;;2.37;;
13197;SDS011;6664;52.514;13.440;2023-12-20T03:08:31;2.03;;;1.93;;
13197;SDS011;6664;52.514;13.440;2023-12-20T03:11:16;2.27;;;2.07;;
13197;SDS011;6664;52.514;13.440;2023-12-20T03:14:02;2.50;;;2.03;;
13197;SDS011;6664;52.514;13.440;2023-12-20T03:16:51;4.30;;;2.00;;
13197;SDS011;6664;52.514;13.440;2023-12-20T03:19:39;2.10;;;1.93;;
13197;SDS011;6664;52.514;13.440;2023-12-20T03:22:25;2.30;;;2.10;;
13197;SDS011;6664;52.514;13.440;2023-12-20T03:25:11;3.50;;;2.30;;
13197;SDS011;6664;52.514;13.440;2023-12-20T03:27:56;5.07;;;1.40;;
13197;SDS011;6664;52.514;13.440;2023-12-20T03:30:42;4.40;;;2.20;;
13197;SDS011;6664;52.514;13.440;2023-12-20T03:33:28;1.40;;;1.30;;
13197;SDS011;6664;52.514;13.440;2023-12-20T03:36:14;4.20;;;1.50;;
13197;SDS011;6664;52.514;13.440;2023-12-20T03:39:00;2.77;;;1.50;;
13197;SDS011;6664;52.514;13.440;2023-12-20T03:41:45;3.80;;;1.23;;
13197;SDS011;6664;52.514;13.440;2023-12-20T03:44:31;4.73;;;1.40;;
13197;SDS011;6664;52.514;13.440;2023-12-20T03:47:16;1.50;;;1.40;;
13197;SDS011;6664;52.514;13.440;2023-12-20T03:50:04;1.60;;;1.20;;
13197;SDS011;6664;52.514;13.440;2023-12-20T03:52:51;2.60;;;1.30;;
13197;SDS011;6664;52.514;13.440;2023-12-20T03:55:36;3.80;;;1.23;;
13197;SDS011;6664;52.514;13.440;2023-12-20T03:58:22;1.07;;;1.07;;
13197;SDS011;6664;52.514;13.440;2023-12-20T04:01:10;1.00;;;0.90;;
13197;SDS011;6664;52.514;13.440;2023-12-20T04:03:57;1.40;;;1.10;;
13197;SDS011;6664;52.514;13.440;2023-12-20T04:06:42;0.90;;;0.90;;
13197;SDS011;6664;52.514;13.440;2023-12-20T04:09:28;2.47;;;1.20;;
13197;SDS011;6664;52.514;13.440;2023-12-20T04:12:14;1.47;;;0.83;;
13197;SDS011;6664;52.514;13.440;2023-12-20T04:14:59;4.67;;;1.30;;
13197;SDS011;6664;52.514;13.440;2023-12-20T04:17:45;4.33;;;1.20;;
13197;SDS011;6664;52.514;13.440;2023-12-20T04:20:32;5.63;;;1.20;;
13197;SDS011;6664;52.514;13.440;2023-12-20T04:23:17;4.40;;;1.30;;
13197;SDS011;6664;52.514;13.440;2023-12-20T04:26:04;3.23;;;1.43;;
13197;SDS011;6664;52.514;13.440;2023-12-20T04:28:50;6.27;;;1.47;;
13197;SDS011;6664;52.514;13.440;2023-12-20T04:31:39;1.73;;;0.80;;
13197;SDS011;6664;52.514;13.440;2023-12-20T04:34:25;2.03;;;1.10;;
13197;SDS011;6664;52.514;13.440;2023-12-20T04:37:10;7.43;;;1.10;;
13197;SDS011;6664;52.514;13.440;2023-12-20T04:39:57;8.60;;;1.40;;
13197;SDS011;6664;52.514;13.440;2023-12-20T04:42:42;4.47;;;1.33;;
13197;SDS011;6664;52.514;13.440;2023-12-20T04:45:28;5.87;;;1.50;;
13197;SDS011;6664;52.514;13.440;2023-12-20T04:48:13;2.37;;;1.30;;
13197;SDS011;6664;52.514;13.440;2023-12-20T04:51:01;1.20;;;1.10;;
13197;SDS011;6664;52.514;13.440;2023-12-20T04:53:47;1.40;;;1.30;;
13197;SDS011;6664;52.514;13.440;2023-12-20T04:56:32;4.63;;;2.03;;
13197;SDS011;6664;52.514;13.440;2023-12-20T04:59:18;4.80;;;1.50;;
13197;SDS011;6664;52.514;13.440;2023-12-20T05:02:03;2.20;;;1.00;;
13197;SDS011;6664;52.514;13.440;2023-12-20T05:04:49;12.33;;;1.10;;
13197;SDS011;6664;52.514;13.440;2023-12-20T05:07:39;12.40;;;1.77;;
13197;SDS011;6664;52.514;13.440;2023-12-20T05:10:25;1.73;;;0.93;;
13197;SDS011;6664;52.514;13.440;2023-12-20T05:13:12;3.13;;;1.30;;
13197;SDS011;6664;52.514;13.440;2023-12-20T05:15:57;6.83;;;1.93;;
13197;SDS011;6664;52.514;13.440;2023-12-20T05:18:45;3.60;;;1.20;;
13197;SDS011;6664;52.514;13.440;2023-12-20T05:21:30;14.23;;;1.63;;
13197;SDS011;6664;52.514;13.440;2023-12-20T05:24:16;8.37;;;0.90;;
13197;SDS011;6664;52.514;13.440;2023-12-20T05:27:02;9.10;;;1.10;;
13197;SDS011;6664;52.514;13.440;2023-12-20T05:29:47;7.60;;;1.60;;
13197;SDS011;6664;52.514;13.440;2023-12-20T05:32:33;3.53;;;1.20;;
13197;SDS011;6664;52.514;13.440;2023-12-20T05:35:18;2.03;;;1.00;;
13197;SDS011;6664;52.514;13.440;2023-12-20T05:38:04;2.77;;;0.90;;
13197;SDS011;6664;52.514;13.440;2023-12-20T05:40:52;4.13;;;1.37;;
13197;SDS011;6664;52.514;13.440;2023-12-20T05:43:41;0.93;;;0.90;;
13197;SDS011;6664;52.514;13.440;2023-12-20T05:46:31;4.43;;;1.50;;
13197;SDS011;6664;52.514;13.440;2023-12-20T05:49:16;5.00;;;1.47;;
13197;SDS011;6664;52.514;13.440;2023-12-20T05:52:02;4.23;;;1.20;;
13197;SDS011;6664;52.514;13.440;2023-12-20T05:54:51;2.30;;;1.10;;
13197;SDS011;6664;52.514;13.440;2023-12-20T05:57:37;4.10;;;1.43;;
13197;SDS011;6664;52.514;13.440;2023-12-20T06:00:24;5.23;;;1.67;;
13197;SDS011;6664;52.514;13.440;2023-12-20T06:03:10;5.90;;;1.30;;
13197;SDS011;6664;52.514;13.440;2023-12-20T06:05:56;9.17;;;1.53;;
13197;SDS011;6664;52.514;13.440;2023-12-20T06:08:57;1.00;;;0.90;;
13197;SDS011;6664;52.514;13.440;2023-12-20T06:11:42;2.27;;;1.10;;
13197;SDS011;6664;52.514;13.440;2023-12-20T06:14:30;3.23;;;1.23;;
13197;SDS011;6664;52.514;13.440;2023-12-20T06:17:16;5.17;;;1.77;;
13197;SDS011;6664;52.514;13.440;2023-12-20T06:20:02;5.60;;;1.30;;
13197;SDS011;6664;52.514;13.440;2023-12-20T06:22:53;5.40;;;1.20;;
13197;SDS011;6664;52.514;13.440;2023-12-20T06:25:38;1.07;;;0.93;;
13197;SDS011;6664;52.514;13.440;2023-12-20T06:28:26;2.40;;;0.80;;
13197;SDS011;6664;52.514;13.440;2023-12-20T06:31:12;5.03;;;1.30;;
13197;SDS011;6664;52.514;13.440;2023-12-20T06:34:00;8.43;;;1.37;;
13197;SDS011;6664;52.514;13.440;2023-12-20T06:36:48;9.57;;;1.20;;
13197;SDS011;6664;52.514;13.440;2023-12-20T06:39:34;3.27;;;1.20;;
13197;SDS011;6664;52.514;13.440;2023-12-20T06:42:22;7.00;;;1.63;;
13197;SDS011;6664;52.514;13.440;2023-12-20T06:45:10;1.80;;;1.40;;
13197;SDS011;6664;52.514;13.440;2023-12-20T06:47:57;2.93;;;1.17;;
13197;SDS011;6664;52.514;13.440;2023-12-20T06:50:43;2.40;;;1.13;;
13197;SDS011;6664;52.514;13.440;2023-12-20T06:53:28;1.43;;;1.00;;
13197;SDS011;6664;52.514;13.440;2023-12-20T06:56:14;4.97;;;1.20;;
13197;SDS011;6664;52.514;13.440;2023-12-20T06:59:03;7.80;;;1.63;;
13197;SDS011;6664;52.514;13.440;2023-12-20T07:01:49;3.53;;;0.97;;
13197;SDS011;6664;52.514;13.440;2023-12-20T07:04:39;2.87;;;0.90;;
13197;SDS011;6664;52.514;13.440;2023-12-20T07:07:27;3.37;;;0.90;;
13197;SDS011;6664;52.514;13.440;2023-12-20T07:10:15;2.57;;;1.40;;
13197;SDS011;6664;52.514;13.440;2023-12-20T07:13:01;1.43;;;1.13;;
13197;SDS011;6664;52.514;13.440;2023-12-20T07:15:46;3.23;;;1.53;;
13197;SDS011;6664;52.514;13.440;2023-12-20T07:18:34;3.37;;;1.53;;
13197;SDS011;6664;52.514;13.440;2023-12-20T07:21:20;3.30;;;1.00;;
13197;SDS011;6664;52.514;13.440;2023-12-20T07:24:06;2.20;;;1.10;;
13197;SDS011;6664;52.514;13.440;2023-12-20T07:26:52;7.23;;;1.50;;
13197;SDS011;6664;52.514;13.440;2023-12-20T07:29:37;6.73;;;1.70;;
13197;SDS011;6664;52.514;13.440;2023-12-20T07:32:23;7.13;;;1.40;;
13197;SDS011;6664;52.514;13.440;2023-12-20T07:35:08;6.57;;;1.67;;
13197;SDS011;6664;52.514;13.440;2023-12-20T07:37:54;3.90;;;1.30;;
13197;SDS011;6664;52.514;13.440;2023-12-20T07:40:40;5.43;;;1.50;;
13197;SDS011;6664;52.514;13.440;2023-12-20T07:43:30;2.80;;;1.60;;
13197;SDS011;6664;52.514;13.440;2023-12-20T07:46:18;11.00;;;1.60;;
13197;SDS011;6664;52.514;13.440;2023-12-20T07:49:07;9.10;;;1.30;;
13197;SDS011;6664;52.514;13.440;2023-12-20T07:51:54;9.30;;;1.50;;
13197;SDS011;6664;52.514;13.440;2023-12-20T07:54:39;2.30;;;1.20;;
13197;SDS011;6664;52.514;13.440;2023-12-20T07:57:28;3.67;;;1.20;;
13197;SDS011;6664;52.514;13.440;2023-12-20T08:00:17;4.60;;;1.33;;
13197;SDS011;6664;52.514;13.440;2023-12-20T08:03:03;2.27;;;1.47;;
13197;SDS011;6664;52.514;13.440;2023-12-20T08:05:49;6.73;;;1.03;;
13197;SDS011;6664;52.514;13.440;2023-12-20T08:08:37;6.10;;;1.53;;
13197;SDS011;6664;52.514;13.440;2023-12-20T08:11:25;3.00;;;1.27;;
13197;SDS011;6664;52.514;13.440;2023-12-20T08:14:11;9.53;;;1.63;;
13197;SDS011;6664;52.514;13.440;2023-12-20T08:17:06;1.80;;;1.30;;
13197;SDS011;6664;52.514;13.440;2023-12-20T08:19:52;2.13;;;1.40;;
13197;SDS011;6664;52.514;13.440;2023-12-20T08:22:38;3.63;;;1.00;;
13197;SDS011;6664;52.514;13.440;2023-12-20T08:25:23;5.87;;;1.97;;
13197;SDS011;6664;52.514;13.440;2023-12-20T08:28:12;3.10;;;1.20;;
13197;SDS011;6664;52.514;13.440;2023-12-20T08:30:58;5.67;;;1.30;;
13197;SDS011;6664;52.514;13.440;2023-12-20T08:33:46;5.17;;;1.20;;
13197;SDS011;6664;52.514;13.440;2023-12-20T08:36:33;2.97;;;1.03;;
13197;SDS011;6664;52.514;13.440;2023-12-20T08:39:19;2.90;;;1.47;;
13197;SDS011;6664;52.514;13.440;2023-12-20T08:42:06;7.00;;;2.60;;
13197;SDS011;6664;52.514;13.440;2023-12-20T08:44:52;4.50;;;0.90;;
13197;SDS011;6664;52.514;13.440;2023-12-20T08:47:37;4.30;;;1.73;;
13197;SDS011;6664;52.514;13.440;2023-12-20T08:50:23;3.33;;;0.90;;
13197;SDS011;6664;52.514;13.440;2023-12-20T08:53:10;1.30;;;1.07;;
13197;SDS011;6664;52.514;13.440;2023-12-20T08:55:56;4.43;;;1.13;;
13197;SDS011;6664;52.514;13.440;2023-12-20T08:58:46;2.77;;;1.13;;
13197;SDS011;6664;52.514;13.440;2023-12-20T09:01:33;7.67;;;1.27;;
13197;SDS011;6664;52.514;13.440;2023-12-20T09:04:20;8.83;;;1.20;;
13197;SDS011;6664;52.514;13.440;2023-12-20T09:07:24;4.00;;;1.10;;
13197;SDS011;6664;52.514;13.440;2023-12-20T09:10:15;4.07;;;1.30;;
13197;SDS011;6664;52.514;13.440;2023-12-20T09:13:03;7.40;;;1.73;;
13197;SDS011;6664;52.514;13.440;2023-12-20T09:15:49;1.90;;;1.10;;
13197;SDS011;6664;52.514;13.440;2023-12-20T09:18:35;4.53;;;1.23;;
13197;SDS011;6664;52.514;13.440;2023-12-20T09:21:20;2.90;;;1.70;;
13197;SDS011;6664;52.514;13.440;2023-12-20T09:24:06;1.90;;;1.53;;
13197;SDS011;6664;52.514;13.440;2023-12-20T09:26:53;3.80;;;1.43;;
13197;SDS011;6664;52.514;13.440;2023-12-20T09:29:39;1.90;;;1.40;;
13197;SDS011;6664;52.514;13.440;2023-12-20T09:32:25;12.13;;;1.67;;
13197;SDS011;6664;52.514;13.440;2023-12-20T09:35:11;7.53;;;1.13;;
13197;SDS011;6664;52.514;13.440;2023-12-20T09:37:57;2.50;;;1.57;;
13197;SDS011;6664;52.514;13.440;2023-12-20T09:40:42;7.43;;;1.30;;
13197;SDS011;6664;52.514;13.440;2023-12-20T09:43:28;1.90;;;1.10;;
13197;SDS011;6664;52.514;13.440;2023-12-20T09:46:15;3.20;;;1.50;;
13197;SDS011;6664;52.514;13.440;2023-12-20T09:49:06;3.17;;;1.37;;
13197;SDS011;6664;52.514;13.440;2023-12-20T09:51:54;2.40;;;1.10;;
13197;SDS011;6664;52.514;13.440;2023-12-20T09:54:41;5.70;;;1.33;;
13197;SDS011;6664;52.514;13.440;2023-12-20T09:57:28;3.00;;;1.10;;
13197;SDS011;6664;52.514;13.440;2023-12-20T10:00:16;3.00;;;1.30;;
13197;SDS011;6664;52.514;13.440;2023-12-20T10:03:06;10.83;;;1.63;;
13197;SDS011;6664;52.514;13.440;2023-12-20T10:05:54;6.03;;;1.40;;
13197;SDS011;6664;52.514;13.440;2023-12-20T10:08:42;2.90;;;1.20;;
13197;SDS011;6664;52.514;13.440;2023-12-20T10:11:31;6.27;;;1.23;;
13197;SDS011;6664;52.514;13.440;2023-12-20T10:14:16;5.20;;;1.30;;
13197;SDS011;6664;52.514;13.440;2023-12-20T10:17:03;2.30;;;0.90;;
13197;SDS011;6664;52.514;13.440;2023-12-20T10:19:53;4.00;;;1.20;;
13197;SDS011;6664;52.514;13.440;2023-12-20T10:22:38;1.73;;;0.80;;
13197;SDS011;6664;52.514;13.440;2023-12-20T10:25:25;6.23;;;1.70;;
13197;SDS011;6664;52.514;13.440;2023-12-20T10:28:12;4.30;;;1.03;;
13197;SDS011;6664;52.514;13.440;2023-12-20T10:31:08;2.93;;;1.30;;
13197;SDS011;6664;52.514;13.440;2023-12-20T10:33:55;4.50;;;1.10;;
13197;SDS011;6664;52.514;13.440;2023-12-20T10:36:42;2.30;;;1.20;;
13197;SDS011;6664;52.514;13.440;2023-12-20T10:39:29;1.77;;;1.13;;
13197;SDS011;6664;52.514;13.440;2023-12-20T10:42:14;4.13;;;1.53;;
13197;SDS011;6664;52.514;13.440;2023-12-20T10:45:01;2.40;;;1.10;;
13197;SDS011;6664;52.514;13.440;2023-12-20T10:47:47;5.50;;;2.03;;
13197;SDS011;6664;52.514;13.440;2023-12-20T10:50:35;4.20;;;1.17;;
13197;SDS011;6664;52.514;13.440;2023-12-20T10:53:24;10.40;;;1.43;;
13197;SDS011;6664;52.514;13.440;2023-12-20T10:56:12;4.17;;;1.53;;
13197;SDS011;6664;52.514;13.440;2023-12-20T10:59:02;3.63;;;1.20;;
13197;SDS011;6664;52.514;13.440;2023-12-20T11:01:50;3.23;;;1.10;;
13197;SDS011;6664;52.514;13.440;2023-12-20T11:04:51;5.40;;;1.87;;
13197;SDS011;6664;52.514;13.440;2023-12-20T11:07:49;5.13;;;1.13;;
13197;SDS011;6664;52.514;13.440;2023-12-20T11:13:57;5.03;;;1.40;;
13197;SDS011;6664;52.514;13.440;2023-12-20T11:17:06;3.83;;;1.40;;
13197;SDS011;6664;52.514;13.440;2023-12-20T11:22:53;5.73;;;1.70;;
13197;SDS011;6664;52.514;13.440;2023-12-20T11:25:53;5.30;;;1.23;;
13197;SDS011;6664;52.514;13.440;2023-12-20T11:28:40;2.70;;;1.20;;
13197;SDS011;6664;52.514;13.440;2023-12-20T11:31:26;4.40;;;1.23;;
13197;SDS011;6664;52.514;13.440;2023-12-20T11:34:13;1.63;;;1.10;;
13197;SDS011;6664;52.514;13.440;2023-12-20T11:37:02;5.37;;;1.70;;
13197;SDS011;6664;52.514;13.440;2023-12-20T11:40:22;4.23;;;1.03;;
13197;SDS011;6664;52.514;13.440;2023-12-20T11:43:03;3.63;;;1.57;;
13197;SDS011;6664;52.514;13.440;2023-12-20T11:45:50;4.03;;;1.07;;
13197;SDS011;6664;52.514;13.440;2023-12-20T11:48:37;1.67;;;1.10;;
13197;SDS011;6664;52.514;13.440;2023-12-20T11:51:25;2.70;;;1.03;;
13197;SDS011;6664;52.514;13.440;2023-12-20T11:54:15;3.70;;;1.77;;
13197;SDS011;6664;52.514;13.440;2023-12-20T11:57:01;3.17;;;1.57;;
13197;SDS011;6664;52.514;13.440;2023-12-20T11:59:46;7.70;;;1.47;;
13197;SDS011;6664;52.514;13.440;2023-12-20T12:02:34;5.37;;;1.60;;
13197;SDS011;6664;52.514;13.440;2023-12-20T12:05:19;3.47;;;1.40;;
13197;SDS011;6664;52.514;13.440;2023-12-20T12:08:06;5.60;;;2.07;;
13197;SDS011;6664;52.514;13.440;2023-12-20T12:10:52;4.20;;;1.27;;
13197;SDS011;6664;52.514;13.440;2023-12-20T12:13:41;5.10;;;1.73;;
13197;SDS011;6664;52.514;13.440;2023-12-20T12:16:27;4.13;;;1.63;;
13197;SDS011;6664;52.514;13.440;2023-12-20T12:19:23;3.43;;;1.60;;
13197;SDS011;6664;52.514;13.440;2023-12-20T12:22:13;2.97;;;1.23;;
13197;SDS011;6664;52.514;13.440;2023-12-20T12:25:13;7.17;;;2.00;;
13197;SDS011;6664;52.514;13.440;2023-12-20T12:27:59;3.10;;;1.60;;
13197;SDS011;6664;52.514;13.440;2023-12-20T12:30:57;3.97;;;1.47;;
13197;SDS011;6664;52.514;13.440;2023-12-20T12:33:44;1.50;;;1.10;;
13197;SDS011;6664;52.514;13.440;2023-12-20T12:36:33;6.07;;;1.37;;
13197;SDS011;6664;52.514;13.440;2023-12-20T12:39:18;5.17;;;1.40;;
13197;SDS011;6664;52.514;13.440;2023-12-20T12:42:04;6.20;;;1.97;;
13197;SDS011;6664;52.514;13.440;2023-12-20T12:44:50;2.67;;;1.30;;
13197;SDS011;6664;52.514;13.440;2023-12-20T12:47:37;4.63;;;1.50;;
13197;SDS011;6664;52.514;13.440;2023-12-20T12:50:24;2.70;;;1.30;;
13197;SDS011;6664;52.514;13.440;2023-12-20T12:53:10;5.20;;;1.40;;
13197;SDS011;6664;52.514;13.440;2023-12-20T12:55:55;4.57;;;1.43;;
13197;SDS011;6664;52.514;13.440;2023-12-20T12:58:43;5.07;;;1.90;;
13197;SDS011;6664;52.514;13.440;2023-12-20T13:01:29;1.53;;;0.90;;
13197;SDS011;6664;52.514;13.440;2023-12-20T13:04:15;3.43;;;0.97;;
13197;SDS011;6664;52.514;13.440;2023-12-20T13:07:01;2.67;;;1.40;;
13197;SDS011;6664;52.514;13.440;2023-12-20T13:09:50;2.77;;;1.40;;
13197;SDS011;6664;52.514;13.440;2023-12-20T13:12:36;6.57;;;1.80;;
13197;SDS011;6664;52.514;13.440;2023-12-20T13:15:21;1.53;;;1.33;;
13197;SDS011;6664;52.514;13.440;2023-12-20T13:18:07;4.90;;;1.13;;
13197;SDS011;6664;52.514;13.440;2023-12-20T13:20:53;1.37;;;1.07;;
13197;SDS011;6664;52.514;13.440;2023-12-20T13:23:39;4.23;;;1.73;;
13197;SDS011;6664;52.514;13.440;2023-12-20T13:26:25;3.77;;;1.43;;
13197;SDS011;6664;52.514;13.440;2023-12-20T13:29:11;2.50;;;1.10;;
13197;SDS011;6664;52.514;13.440;2023-12-20T13:31:57;3.70;;;1.00;;
13197;SDS011;6664;52.514;13.440;2023-12-20T13:34:43;0.87;;;0.87;;
13197;SDS011;6664;52.514;13.440;2023-12-20T13:37:29;2.93;;;0.93;;
13197;SDS011;6664;52.514;13.440;2023-12-20T13:40:17;1.60;;;0.93;;
13197;SDS011;6664;52.514;13.440;2023-12-20T13:43:04;1.07;;;0.73;;
13197;SDS011;6664;52.514;13.440;2023-12-20T13:45:51;2.60;;;0.93;;
13197;SDS011;6664;52.514;13.440;2023-12-20T13:48:38;0.60;;;0.60;;
13197;SDS011;6664;52.514;13.440;2023-12-20T13:51:24;3.03;;;0.70;;
13197;SDS011;6664;52.514;13.440;2023-12-20T13:54:09;0.70;;;0.70;;
13197;SDS011;6664;52.514;13.440;2023-12-20T13:56:56;1.80;;;0.80;;
13197;SDS011;6664;52.514;13.440;2023-12-20T13:59:56;0.80;;;0.80;;
13197;SDS011;6664;52.514;13.440;2023-12-20T14:02:42;1.60;;;1.03;;
13197;SDS011;6664;52.514;13.440;2023-12-20T14:05:28;2.73;;;1.13;;
13197;SDS011;6664;52.514;13.440;2023-12-20T14:08:14;1.37;;;1.27;;
13197;SDS011;6664;52.514;13.440;2023-12-20T14:11:02;4.33;;;0.70;;
13197;SDS011;6664;52.514;13.440;2023-12-20T14:13:48;2.50;;;0.90;;
13197;SDS011;6664;52.514;13.440;2023-12-20T14:16:34;0.80;;;0.80;;
13197;SDS011;6664;52.514;13.440;2023-12-20T14:19:20;2.70;;;0.93;;
13197;SDS011;6664;52.514;13.440;2023-12-20T14:22:05;1.43;;;0.80;;
13197;SDS011;6664;52.514;13.440;2023-12-20T14:24:51;1.80;;;1.17;;
13197;SDS011;6664;52.514;13.440;2023-12-20T14:27:39;0.93;;;0.93;;
13197;SDS011;6664;52.514;13.440;2023-12-20T14:30:29;0.50;;;0.50;;
13197;SDS011;6664;52.514;13.440;2023-12-20T14:33:16;0.93;;;0.63;;
13197;SDS011;6664;52.514;13.440;2023-12-20T14:36:01;0.80;;;0.80;;
13197;SDS011;6664;52.514;13.440;2023-12-20T14:38:52;1.30;;;0.77;;
13197;SDS011;6664;52.514;13.440;2023-12-20T14:41:38;0.70;;;0.70;;
13197;SDS011;6664;52.514;13.440;2023-12-20T14:44:28;0.70;;;0.70;;
13197;SDS011;6664;52.514;13.440;2023-12-20T14:47:14;2.90;;;0.83;;
13197;SDS011;6664;52.514;13.440;2023-12-20T14:50:00;0.70;;;0.70;;
13197;SDS011;6664;52.514;13.440;2023-12-20T14:52:47;5.30;;;0.90;;
13197;SDS011;6664;52.514;13.440;2023-12-20T14:55:38;0.60;;;0.60;;
13197;SDS011;6664;52.514;13.440;2023-12-20T14:58:24;3.47;;;0.90;;
13197;SDS011;6664;52.514;13.440;2023-12-20T15:01:14;1.73;;;0.70;;
13197;SDS011;6664;52.514;13.440;2023-12-20T15:03:59;0.70;;;0.70;;
13197;SDS011;6664;52.514;13.440;2023-12-20T15:06:46;1.07;;;0.80;;
13197;SDS011;6664;52.514;13.440;2023-12-20T15:09:31;3.03;;;0.97;;
13197;SDS011;6664;52.514;13.440;2023-12-20T15:12:17;3.70;;;1.10;;
13197;SDS011;6664;52.514;13.440;2023-12-20T15:15:03;0.87;;;0.87;;
13197;SDS011;6664;52.514;13.440;2023-12-20T15:17:51;1.00;;;1.00;;
13197;SDS011;6664;52.514;13.440;2023-12-20T15:20:36;2.83;;;1.00;;
13197;SDS011;6664;52.514;13.440;2023-12-20T15:23:22;9.93;;;1.00;;
13197;SDS011;6664;52.514;13.440;2023-12-20T15:26:11;3.60;;;1.10;;
13197;SDS011;6664;52.514;13.440;2023-12-20T15:28:58;6.17;;;1.07;;
13197;SDS011;6664;52.514;13.440;2023-12-20T15:31:47;1.87;;;1.07;;
13197;SDS011;6664;52.514;13.440;2023-12-20T15:34:33;4.20;;;1.20;;
13197;SDS011;6664;52.514;13.440;2023-12-20T15:37:22;4.00;;;0.80;;
13197;SDS011;6664;52.514;13.440;2023-12-20T15:40:08;7.90;;;1.13;;
13197;SDS011;6664;52.514;13.440;2023-12-20T15:42:58;4.10;;;1.77;;
13197;SDS011;6664;52.514;13.440;2023-12-20T15:45:44;4.50;;;0.90;;
13197;SDS011;6664;52.514;13.440;2023-12-20T15:48:31;1.53;;;0.97;;
13197;SDS011;6664;52.514;13.440;2023-12-20T15:51:17;4.10;;;2.83;;
13197;SDS011;6664;52.514;13.440;2023-12-20T15:54:05;0.87;;;0.87;;
13197;SDS011;6664;52.514;13.440;2023-12-20T15:56:53;1.90;;;1.20;;
13197;SDS011;6664;52.514;13.440;2023-12-20T15:59:39;1.60;;;1.00;;
13197;SDS011;6664;52.514;13.440;2023-12-20T16:02:24;4.13;;;1.00;;
13197;SDS011;6664;52.514;13.440;2023-12-20T16:05:10;2.60;;;1.20;;
13197;SDS011;6664;52.514;13.440;2023-12-20T16:07:55;2.57;;;1.00;;
13197;SDS011;6664;52.514;13.440;2023-12-20T16:10:43;2.80;;;1.00;;
13197;SDS011;6664;52.514;13.440;2023-12-20T16:13:29;1.90;;;0.70;;
13197;SDS011;6664;52.514;13.440;2023-12-20T16:16:15;2.53;;;1.07;;
13197;SDS011;6664;52.514;13.440;2023-12-20T16:19:03;2.03;;;1.00;;
13197;SDS011;6664;52.514;13.440;2023-12-20T16:21:52;2.10;;;0.93;;
13197;SDS011;6664;52.514;13.440;2023-12-20T16:24:38;4.63;;;1.00;;
13197;SDS011;6664;52.514;13.440;2023-12-20T16:27:24;4.57;;;2.00;;
13197;SDS011;6664;52.514;13.440;2023-12-20T16:30:10;2.20;;;1.20;;
13197;SDS011;6664;52.514;13.440;2023-12-20T16:32:56;2.63;;;1.20;;
13197;SDS011;6664;52.514;13.440;2023-12-20T16:35:41;10.77;;;1.30;;
13197;SDS011;6664;52.514;13.440;2023-12-20T16:38:29;5.37;;;1.23;;
13197;SDS011;6664;52.514;13.440;2023-12-20T16:41:15;4.20;;;1.00;;
13197;SDS011;6664;52.514;13.440;2023-12-20T16:44:00;5.53;;;1.00;;
13197;SDS011;6664;52.514;13.440;2023-12-20T16:46:46;0.73;;;0.73;;
13197;SDS011;6664;52.514;13.440;2023-12-20T16:49:31;2.80;;;1.50;;
13197;SDS011;6664;52.514;13.440;2023-12-20T16:52:19;1.20;;;1.20;;
13197;SDS011;6664;52.514;13.440;2023-12-20T16:55:08;10.03;;;1.93;;
13197;SDS011;6664;52.514;13.440;2023-12-20T16:57:55;0.93;;;0.93;;